Nearby METAR Reports

 

KBGR - Bangor, Maine, USA
Distance from station: E 5mi, 8km
Updated: Sun, 16-Dec-2018 1:53pm EST
Overcast
Overcast
 Wind from NNE
Wind: NNE 5 mph , 7 km/h
Temperature: 37°F , 3°C
Wind Chill: 33°F , 1°C
Dew Point: 27°F , -3°C
Humidity: 65%
Barometer: 30.15 inHg , 1021 hPa
Clouds: Overcast
Visibility: 10 miles , 16 km
Cloud details: Partly cloudy 13000 ft
Overcast 25000 ft
2018/12/16 18:53 KBGR 161853Z 02004KT 10SM SCT130 OVC250 03/M03 A3015 RMK AO2 SLP211 T00281028
KBHB - Bar Harbor, Maine, USA
Distance from station: SE 37mi, 59km
Updated: Sun, 16-Dec-2018 2:11pm EST
Few Clouds
Few Clouds
 Wind from NNE
Wind: NNE 6 mph , 9 km/h
Temperature: 37°F , 3°C
Wind Chill: 32°F , 0°C
Dew Point: 28°F , -2°C
Humidity: 70%
Barometer: 30.12 inHg , 1020 hPa
Clouds: Few Clouds
Visibility: 10 miles , 16 km
Cloud details: Few Clouds 2600 ft
2018/12/16 19:11 KBHB 161911Z AUTO 03005KT 10SM FEW026 03/M02 A3012 RMK AO2
 
KWVL - Waterville, Maine, USA
Distance from station: WSW 42mi, 68km
Updated: Sun, 16-Dec-2018 1:56pm EST
Clear
Clear
 
Temperature: 39°F , 4°C
Dew Point: 27°F , -3°C
Humidity: 61%
Barometer: 30.06 inHg , 1017.9 hPa
Clouds: Clear
Visibility: 10 miles , 16 km
2018/12/16 18:56 KWVL 161856Z AUTO 10SM CLR 04/M03 A3006 RMK AO2 SLP212 T00391033 $
KRKD - Rockland/Knox, Maine, USA
Distance from station: S 52mi, 84km
Updated: Sun, 16-Dec-2018 12:56pm EST
NOT Current
Few Clouds
Few Clouds
 Wind from NNE
Wind: NNE 9 mph , 15 km/h
Temperature: 37°F , 3°C
Wind Chill: 30°F , -1°C
Dew Point: 30°F , -1°C
Humidity: 75%
Barometer: 30.13 inHg , 1020.3 hPa
Clouds: Few Clouds
Visibility: 10 miles , 16 km
Cloud details: Few Clouds 2800 ft
2018/12/16 17:56 KRKD 161756Z AUTO 03008KT 10SM FEW028 03/M01 A3013 RMK AO2 SLP206 T00281006 10033 21033 56040
 
KAUG - Augusta, Maine, USA
Distance from station: SW 55mi, 89km
Updated: Sun, 16-Dec-2018 1:53pm EST
Clear
Clear
 Wind from NE
Wind: NE 7 mph , 11 km/h
Temperature: 37°F , 3°C
Wind Chill: 32°F , 0°C
Dew Point: 27°F , -3°C
Humidity: 65%
Barometer: 30.09 inHg , 1019 hPa
Clouds: Clear
Visibility: 10 miles , 16 km
2018/12/16 18:53 KAUG 161853Z AUTO 04006KT 10SM CLR 03/M03 A3009 RMK AO2 SLP194 T00281033
KGNR - Greenville, Maine, USA
Distance from station: NW 55mi, 89km
Updated: Sun, 16-Dec-2018 1:56pm EST

 Wind from SSE
Wind: SSE 5 mph , 7 km/h
Temperature: 32°F , 0°C
Wind Chill: 27°F , -3°C
Dew Point: 21°F , -6°C
Humidity: 64%
Barometer: 30.07 inHg , 1018.3 hPa
2018/12/16 18:56 KGNR 161856Z AUTO 15004KT 00/M06 A3007 RMK AO1 SLP202 T00001056
 
KMLT - Millinocket, Maine, USA
Distance from station: N 59mi, 95km
Updated: Sun, 16-Dec-2018 1:53pm EST
Clear
Clear
 Wind from ESE
Wind: ESE 3 mph , 6 km/h
Temperature: 34°F , 1°C
Dew Point: 25°F , -4°C
Humidity: 70%
Barometer: 30.15 inHg , 1021 hPa
Clouds: Clear
Visibility: 10 miles , 16 km
2018/12/16 18:53 KMLT 161853Z AUTO 11003KT 10SM CLR 01/M04 A3015 RMK AO2 SLP221 T00061039
KIWI - Wiscasset, Maine, USA
Distance from station: SW 70mi, 113km
Updated: Sun, 16-Dec-2018 1:53pm EST
Clear
Clear
 Wind from varies
Wind: varies 6 mph , 9 km/h
Temperature: 39°F , 4°C
Wind Chill: 35°F , 2°C
Dew Point: 30°F , -1°C
Humidity: 70%
Barometer: 30.09 inHg , 1019 hPa
Clouds: Clear
Visibility: 10 miles , 16 km
2018/12/16 18:53 KIWI 161853Z AUTO VRB05KT 10SM CLR 04/M01 A3009 RMK AO2 SLP192 T00441011
 
CWSS - St. Stephen (mar, New Brunswick, Canada
Distance from station: ENE 86mi, 138km
Updated: Sun, 16-Dec-2018 2:00pm EST

 Wind from S
Wind: S 2 mph , 4 km/h
Temperature: 41°F , 5°C
Dew Point: 28°F , -2°C
Humidity: 61%
2018/12/16 19:00 CWSS 161900Z AUTO 19002KT 05/M02 RMK AO1 SOG 03 6019 SLP211 T00451021
KLEW - Auburn/Lewiston, Maine, USA
Distance from station: SW 86mi, 138km
Updated: Sun, 16-Dec-2018 1:56pm EST
Clear
Clear
 Wind from NNE
Wind: NNE 7 mph , 11 km/h
Temperature: 37°F , 3°C
Wind Chill: 32°F , 0°C
Dew Point: 27°F , -3°C
Humidity: 65%
Barometer: 30.07 inHg , 1018.3 hPa
Clouds: Clear
Visibility: 10 miles , 16 km
2018/12/16 18:56 KLEW 161856Z AUTO 02006KT 10SM CLR 03/M03 A3007 RMK AO2 SLP199 T00281033
 
KHUL - Houlton, Maine, USA
Distance from station: NNE 105mi, 169km
Updated: Sun, 16-Dec-2018 1:53pm EST
Clear
Clear
 Wind from calm
Wind: Calm
Temperature: 34°F , 1°C
Dew Point: 25°F , -4°C
Humidity: 70%
Barometer: 30.13 inHg , 1020.3 hPa
Clouds: Clear
Visibility: 10 miles , 16 km
2018/12/16 18:53 KHUL 161853Z AUTO 00000KT 10SM CLR 01/M04 A3013 RMK AO2 SLP211 T00061039 TSNO
KPWM - Portland, Maine, USA
Distance from station: SW 105mi, 170km
Updated: Sun, 16-Dec-2018 2:51pm EST
Mostly cloudy
Mostly cloudy
 Wind from ENE
Wind: ENE 10 mph , 17 km/h
Temperature: 39°F , 4°C
Wind Chill: 32°F , 0°C
Dew Point: 28°F , -2°C
Humidity: 65%
Barometer: 30.06 inHg , 1017.9 hPa
Clouds: Mostly cloudy
Visibility: 10 miles , 16 km
Cloud details: Few Clouds 3500 ft
Mostly cloudy 13000 ft
Mostly cloudy 25000 ft
2018/12/16 19:51 KPWM 161951Z 06009KT 030V100 10SM FEW035 BKN130 BKN250 04/M02 A3006 RMK AO2 SLP178 T00391017
 
KBML - Berlin, New Hampshire, USA
Distance from station: W 113mi, 181km
Updated: Sun, 16-Dec-2018 2:52pm EST
Clear
Clear
 Wind from SSW
Wind: SSW 3 mph , 6 km/h
Temperature: 36°F , 2°C
Dew Point: 25°F , -4°C
Humidity: 65%
Barometer: 30.01 inHg , 1016.3 hPa
Clouds: Clear
Visibility: 10 miles , 16 km
2018/12/16 19:52 KBML 161952Z AUTO 20003KT 10SM CLR 02/M04 A3001 RMK AO2 SLP180 T00221044
KIZG - Fryeburg, Maine, USA
Distance from station: WSW 116mi, 186km
Updated: Sun, 16-Dec-2018 1:54pm EST
Clear
Clear
 Wind from N
Wind: N 3 mph , 6 km/h
Temperature: 37°F , 3°C
Dew Point: 25°F , -4°C
Humidity: 60%
Barometer: 30.07 inHg , 1018.3 hPa
Clouds: Clear
Visibility: 10 miles , 16 km
2018/12/16 18:54 KIZG 161854Z AUTO 01003KT 10SM CLR 03/M04 A3007 RMK AO2 SLP189 T00281044
 
CWPE - Point Lepreau, New Brunswick, Canada
Distance from station: E 121mi, 195km
Updated: Sun, 16-Dec-2018 2:00pm EST

 Wind from E
Wind: E 3 mph , 6 km/h
Temperature: 37°F , 3°C
Dew Point: 30°F , -1°C
Humidity: 75%
2018/12/16 19:00 CWPE 161900Z AUTO 10003KT 03/M01 RMK AO1 SLP214 T00331007 56017
KMWN - Mount Washington, New Hampshire, USA
Distance from station: WSW 123mi, 198km
Updated: Sun, 16-Dec-2018 1:49pm EST

 Wind from ESE
Wind: ESE 49 mph , 80 km/h, Gust: 56 mph , 91 km/h
Visibility: 90 miles , 144 km
2018/12/16 18:49 KMWN 161849Z 12043G49KT 90SM FEW/// SCT050 BKN080 OVC140 M04/M16 RMK VIRGA DSNT SW BBLO FEW S-SW BLSN AT STA
 
KPQI - Presque Isle, Maine, USA
Distance from station: ESE 136mi, 219km
Updated: Sun, 16-Dec-2018 2:30pm EST
Few Clouds
Few Clouds
 Wind from calm
Wind: Calm
Temperature: 28°F , -2°C
Dew Point: 25°F , -4°C
Humidity: 86%
Barometer: 30.15 inHg , 1021 hPa
Clouds: Few Clouds
Visibility: 10 miles , 16 km
Cloud details: Few Clouds 1600 ft
2018/12/16 19:30 KPQI 161930Z AUTO 00000KT 10SM FEW016 M02/M04 A3015 RMK AO2 FZRANO
KCAR - Caribou, Maine, USA
Distance from station: NNE 148mi, 238km
Updated: Sun, 16-Dec-2018 1:54pm EST
Clear
Clear
 Wind from SSE
Wind: SSE 5 mph , 7 km/h
Temperature: 30°F , -1°C
Wind Chill: 25°F , -4°C
Dew Point: 23°F , -5°C
Humidity: 75%
Barometer: 30.12 inHg , 1020 hPa
Clouds: Clear
Visibility: 10 miles , 16 km
2018/12/16 18:54 KCAR 161854Z AUTO 15004KT 10SM CLR M01/M05 A3012 RMK AO2 SLP213 T10061050